シアトル/タコマ の空港の天気 - METARとTAF

シアトル・タコマ国際空港 ( KSEA / SEA ) - アメリカ ワシントン州シアトル
飛行場実況気象(Metar)
観測時間10/28 10:53 PDT (10/28 17:53 UTC)
風向・風速南東 2m/s
視程10km以上
天気現象
全天を覆う雲 雲底高度 490m
気温11.1℃
湿度74%
気圧1025.8hPa
METARKSEA 281753Z 13004KT 10SM OVC016 11/07 A3027 RMK AO2 SLP258 T01110067 10117 20083 50003
過去の天気等 Google飛行場航空写真 Wunderground天気予報

過去48時間のMETAR

飛行場予報(TAF)
発表時間: 10/28 10:22 PDT (10/28 17:22 UTC)
予報対象時間: 28日11時 PDT ~ 29日17時 PDT
風向・風速南南東 3m/s
視程10km以上
全天を覆う雲 雲底高度 430m
28日14時 PDT から
風向・風速南西 3m/s
視程10km以上
全天の4割程度の雲 雲底高度 760m
全天の8割程度の雲 雲底高度 1220m
29日1時 PDT から
風向・風速南 3m/s
視程10km以上
全天を覆う雲 雲底高度 340m
29日5時 PDT から
風向・風速南南東 2m/s
視程10km以上
全天を覆う雲 雲底高度 180m
29日8時 PDT から
風向・風速南南東 3m/s
視程10km以上
全天を覆う雲 雲底高度 460m
KSEA 281722Z 2818/2924 16006KT P6SM OVC014
FM282100 22006KT P6SM SCT025 BKN040
FM290800 18006KT P6SM OVC011
FM291200 16004KT P6SM OVC006
FM291500 15005KT P6SM OVC015